sensor_id;sensor_type;location;lat;lon;timestamp;P1;durP1;ratioP1;P2;durP2;ratioP2
72559;SDS011;62987;52.382;9.752;2023-10-31T00:02:10;6.63;;;2.80;;
72559;SDS011;62987;52.382;9.752;2023-10-31T00:04:38;5.18;;;2.22;;
72559;SDS011;62987;52.382;9.752;2023-10-31T00:07:08;7.80;;;2.83;;
72559;SDS011;62987;52.382;9.752;2023-10-31T00:09:36;6.15;;;2.55;;
72559;SDS011;62987;52.382;9.752;2023-10-31T00:12:06;6.15;;;2.72;;
72559;SDS011;62987;52.382;9.752;2023-10-31T00:14:34;8.23;;;3.10;;
72559;SDS011;62987;52.382;9.752;2023-10-31T00:17:02;6.70;;;2.60;;
72559;SDS011;62987;52.382;9.752;2023-10-31T00:19:31;7.35;;;3.15;;
72559;SDS011;62987;52.382;9.752;2023-10-31T00:21:59;7.25;;;2.88;;
72559;SDS011;62987;52.382;9.752;2023-10-31T00:24:29;5.10;;;2.35;;
72559;SDS011;62987;52.382;9.752;2023-10-31T00:26:59;5.50;;;2.80;;
72559;SDS011;62987;52.382;9.752;2023-10-31T00:29:27;6.35;;;2.50;;
72559;SDS011;62987;52.382;9.752;2023-10-31T00:31:55;7.70;;;2.63;;
72559;SDS011;62987;52.382;9.752;2023-10-31T00:34:23;5.45;;;2.78;;
72559;SDS011;62987;52.382;9.752;2023-10-31T00:36:52;8.15;;;2.72;;
72559;SDS011;62987;52.382;9.752;2023-10-31T00:39:20;5.65;;;2.33;;
72559;SDS011;62987;52.382;9.752;2023-10-31T00:41:51;5.15;;;2.22;;
72559;SDS011;62987;52.382;9.752;2023-10-31T00:44:19;6.30;;;2.15;;
72559;SDS011;62987;52.382;9.752;2023-10-31T00:46:47;5.40;;;2.42;;
72559;SDS011;62987;52.382;9.752;2023-10-31T00:49:16;6.32;;;2.20;;
72559;SDS011;62987;52.382;9.752;2023-10-31T00:51:44;5.38;;;2.38;;
72559;SDS011;62987;52.382;9.752;2023-10-31T00:54:13;5.35;;;2.30;;
72559;SDS011;62987;52.382;9.752;2023-10-31T00:56:41;7.15;;;2.67;;
72559;SDS011;62987;52.382;9.752;2023-10-31T00:59:11;4.22;;;2.08;;
72559;SDS011;62987;52.382;9.752;2023-10-31T01:01:39;6.28;;;2.30;;
72559;SDS011;62987;52.382;9.752;2023-10-31T01:04:08;4.65;;;2.45;;
72559;SDS011;62987;52.382;9.752;2023-10-31T01:06:39;5.22;;;2.30;;
72559;SDS011;62987;52.382;9.752;2023-10-31T01:09:08;6.40;;;2.33;;
72559;SDS011;62987;52.382;9.752;2023-10-31T01:11:38;6.32;;;2.70;;
72559;SDS011;62987;52.382;9.752;2023-10-31T01:14:06;5.70;;;2.13;;
72559;SDS011;62987;52.382;9.752;2023-10-31T01:16:36;6.40;;;2.53;;
72559;SDS011;62987;52.382;9.752;2023-10-31T01:19:05;5.82;;;2.22;;
72559;SDS011;62987;52.382;9.752;2023-10-31T01:21:33;4.28;;;2.03;;
72559;SDS011;62987;52.382;9.752;2023-10-31T01:24:01;6.15;;;2.50;;
72559;SDS011;62987;52.382;9.752;2023-10-31T01:26:29;8.38;;;2.78;;
72559;SDS011;62987;52.382;9.752;2023-10-31T01:28:58;5.20;;;2.55;;
72559;SDS011;62987;52.382;9.752;2023-10-31T01:31:27;6.28;;;2.70;;
72559;SDS011;62987;52.382;9.752;2023-10-31T01:33:56;6.43;;;3.00;;
72559;SDS011;62987;52.382;9.752;2023-10-31T01:36:25;5.45;;;2.45;;
72559;SDS011;62987;52.382;9.752;2023-10-31T01:38:53;6.30;;;2.47;;
72559;SDS011;62987;52.382;9.752;2023-10-31T01:41:22;5.15;;;2.33;;
72559;SDS011;62987;52.382;9.752;2023-10-31T01:43:50;5.93;;;2.55;;
72559;SDS011;62987;52.382;9.752;2023-10-31T01:46:18;6.18;;;2.92;;
72559;SDS011;62987;52.382;9.752;2023-10-31T01:48:47;6.38;;;2.60;;
72559;SDS011;62987;52.382;9.752;2023-10-31T01:51:16;10.13;;;3.42;;
72559;SDS011;62987;52.382;9.752;2023-10-31T01:53:45;5.97;;;3.03;;
72559;SDS011;62987;52.382;9.752;2023-10-31T01:56:15;5.45;;;2.53;;
72559;SDS011;62987;52.382;9.752;2023-10-31T01:58:43;6.32;;;2.90;;
72559;SDS011;62987;52.382;9.752;2023-10-31T02:01:13;8.93;;;3.22;;
72559;SDS011;62987;52.382;9.752;2023-10-31T02:03:41;11.98;;;3.38;;
72559;SDS011;62987;52.382;9.752;2023-10-31T02:06:10;8.60;;;2.75;;
72559;SDS011;62987;52.382;9.752;2023-10-31T02:08:39;6.72;;;2.67;;
72559;SDS011;62987;52.382;9.752;2023-10-31T02:11:08;9.60;;;2.88;;
72559;SDS011;62987;52.382;9.752;2023-10-31T02:13:39;4.93;;;2.55;;
72559;SDS011;62987;52.382;9.752;2023-10-31T02:16:07;6.32;;;3.08;;
72559;SDS011;62987;52.382;9.752;2023-10-31T02:18:36;6.03;;;2.45;;
72559;SDS011;62987;52.382;9.752;2023-10-31T02:21:04;7.00;;;2.80;;
72559;SDS011;62987;52.382;9.752;2023-10-31T02:23:34;8.02;;;2.83;;
72559;SDS011;62987;52.382;9.752;2023-10-31T02:26:02;6.03;;;2.25;;
72559;SDS011;62987;52.382;9.752;2023-10-31T02:28:31;5.10;;;2.35;;
72559;SDS011;62987;52.382;9.752;2023-10-31T02:30:59;6.60;;;2.10;;
72559;SDS011;62987;52.382;9.752;2023-10-31T02:33:27;9.07;;;2.63;;
72559;SDS011;62987;52.382;9.752;2023-10-31T02:35:56;5.60;;;2.30;;
72559;SDS011;62987;52.382;9.752;2023-10-31T02:38:24;7.22;;;2.53;;
72559;SDS011;62987;52.382;9.752;2023-10-31T02:40:54;5.65;;;2.55;;
72559;SDS011;62987;52.382;9.752;2023-10-31T02:43:23;5.18;;;2.67;;
72559;SDS011;62987;52.382;9.752;2023-10-31T02:45:51;5.10;;;2.63;;
72559;SDS011;62987;52.382;9.752;2023-10-31T02:48:20;4.70;;;2.10;;
72559;SDS011;62987;52.382;9.752;2023-10-31T02:50:48;4.60;;;2.33;;
72559;SDS011;62987;52.382;9.752;2023-10-31T02:53:17;5.28;;;2.40;;
72559;SDS011;62987;52.382;9.752;2023-10-31T02:55:46;4.57;;;2.15;;
72559;SDS011;62987;52.382;9.752;2023-10-31T02:58:16;5.85;;;2.00;;
72559;SDS011;62987;52.382;9.752;2023-10-31T03:00:45;6.53;;;2.40;;
72559;SDS011;62987;52.382;9.752;2023-10-31T03:03:13;5.32;;;1.95;;
72559;SDS011;62987;52.382;9.752;2023-10-31T03:05:43;4.03;;;1.88;;
72559;SDS011;62987;52.382;9.752;2023-10-31T03:08:12;4.53;;;2.13;;
72559;SDS011;62987;52.382;9.752;2023-10-31T03:10:41;3.67;;;1.55;;
72559;SDS011;62987;52.382;9.752;2023-10-31T03:13:09;6.40;;;2.45;;
72559;SDS011;62987;52.382;9.752;2023-10-31T03:15:39;6.03;;;2.05;;
72559;SDS011;62987;52.382;9.752;2023-10-31T03:18:07;4.07;;;2.00;;
72559;SDS011;62987;52.382;9.752;2023-10-31T03:20:36;5.32;;;2.35;;
72559;SDS011;62987;52.382;9.752;2023-10-31T03:23:04;4.55;;;1.88;;
72559;SDS011;62987;52.382;9.752;2023-10-31T03:25:32;6.38;;;2.17;;
72559;SDS011;62987;52.382;9.752;2023-10-31T03:28:01;5.43;;;2.10;;
72559;SDS011;62987;52.382;9.752;2023-10-31T03:30:29;5.15;;;2.05;;
72559;SDS011;62987;52.382;9.752;2023-10-31T03:32:59;4.63;;;1.77;;
72559;SDS011;62987;52.382;9.752;2023-10-31T03:35:28;5.40;;;2.20;;
72559;SDS011;62987;52.382;9.752;2023-10-31T03:37:56;3.25;;;1.35;;
72559;SDS011;62987;52.382;9.752;2023-10-31T03:40:24;4.10;;;1.85;;
72559;SDS011;62987;52.382;9.752;2023-10-31T03:42:53;4.38;;;2.08;;
72559;SDS011;62987;52.382;9.752;2023-10-31T03:45:21;4.35;;;2.20;;
72559;SDS011;62987;52.382;9.752;2023-10-31T03:47:49;4.40;;;2.35;;
72559;SDS011;62987;52.382;9.752;2023-10-31T03:50:19;5.22;;;2.50;;
72559;SDS011;62987;52.382;9.752;2023-10-31T03:52:48;5.13;;;2.75;;
72559;SDS011;62987;52.382;9.752;2023-10-31T03:55:16;7.45;;;2.70;;
72559;SDS011;62987;52.382;9.752;2023-10-31T03:57:44;5.30;;;2.70;;
72559;SDS011;62987;52.382;9.752;2023-10-31T04:00:13;3.80;;;2.20;;
72559;SDS011;62987;52.382;9.752;2023-10-31T04:02:42;5.28;;;2.58;;
72559;SDS011;62987;52.382;9.752;2023-10-31T04:05:10;3.83;;;1.92;;
72559;SDS011;62987;52.382;9.752;2023-10-31T04:07:40;3.97;;;1.60;;
72559;SDS011;62987;52.382;9.752;2023-10-31T04:10:10;5.68;;;2.50;;
72559;SDS011;62987;52.382;9.752;2023-10-31T04:12:38;5.07;;;2.00;;
72559;SDS011;62987;52.382;9.752;2023-10-31T04:15:07;3.72;;;2.22;;
72559;SDS011;62987;52.382;9.752;2023-10-31T04:17:36;2.45;;;1.35;;
72559;SDS011;62987;52.382;9.752;2023-10-31T04:20:05;3.40;;;1.52;;
72559;SDS011;62987;52.382;9.752;2023-10-31T04:22:35;3.05;;;1.60;;
72559;SDS011;62987;52.382;9.752;2023-10-31T04:25:05;3.05;;;1.38;;
72559;SDS011;62987;52.382;9.752;2023-10-31T04:27:33;3.75;;;1.05;;
72559;SDS011;62987;52.382;9.752;2023-10-31T04:30:02;2.30;;;1.17;;
72559;SDS011;62987;52.382;9.752;2023-10-31T04:32:30;4.68;;;1.30;;
72559;SDS011;62987;52.382;9.752;2023-10-31T04:34:58;2.65;;;1.20;;
72559;SDS011;62987;52.382;9.752;2023-10-31T04:37:29;3.83;;;1.42;;
72559;SDS011;62987;52.382;9.752;2023-10-31T04:40:01;3.42;;;1.48;;
72559;SDS011;62987;52.382;9.752;2023-10-31T04:42:31;2.55;;;0.98;;
72559;SDS011;62987;52.382;9.752;2023-10-31T04:45:00;1.77;;;0.90;;
72559;SDS011;62987;52.382;9.752;2023-10-31T04:47:30;1.30;;;0.60;;
72559;SDS011;62987;52.382;9.752;2023-10-31T04:49:59;2.20;;;0.45;;
72559;SDS011;62987;52.382;9.752;2023-10-31T04:52:27;2.58;;;0.40;;
72559;SDS011;62987;52.382;9.752;2023-10-31T04:54:55;0.85;;;0.30;;
72559;SDS011;62987;52.382;9.752;2023-10-31T04:57:24;2.00;;;0.70;;
72559;SDS011;62987;52.382;9.752;2023-10-31T04:59:53;0.45;;;0.35;;
72559;SDS011;62987;52.382;9.752;2023-10-31T05:02:24;0.40;;;0.20;;
72559;SDS011;62987;52.382;9.752;2023-10-31T05:04:52;1.08;;;0.40;;
72559;SDS011;62987;52.382;9.752;2023-10-31T05:07:20;1.33;;;0.50;;
72559;SDS011;62987;52.382;9.752;2023-10-31T05:09:49;0.28;;;0.13;;
72559;SDS011;62987;52.382;9.752;2023-10-31T05:12:17;0.28;;;0.20;;
72559;SDS011;62987;52.382;9.752;2023-10-31T05:14:46;0.30;;;0.10;;
72559;SDS011;62987;52.382;9.752;2023-10-31T05:17:15;0.28;;;0.17;;
72559;SDS011;62987;52.382;9.752;2023-10-31T05:19:44;0.63;;;0.17;;
72559;SDS011;62987;52.382;9.752;2023-10-31T05:22:12;1.20;;;0.65;;
72559;SDS011;62987;52.382;9.752;2023-10-31T05:24:40;0.20;;;0.17;;
72559;SDS011;62987;52.382;9.752;2023-10-31T05:27:09;0.05;;;0.05;;
72559;SDS011;62987;52.382;9.752;2023-10-31T05:29:38;0.52;;;0.40;;
72559;SDS011;62987;52.382;9.752;2023-10-31T05:32:06;0.57;;;0.20;;
72559;SDS011;62987;52.382;9.752;2023-10-31T05:34:37;0.10;;;0.10;;
72559;SDS011;62987;52.382;9.752;2023-10-31T05:37:05;1.75;;;0.38;;
72559;SDS011;62987;52.382;9.752;2023-10-31T05:39:33;0.20;;;0.20;;
72559;SDS011;62987;52.382;9.752;2023-10-31T05:42:03;0.47;;;0.10;;
72559;SDS011;62987;52.382;9.752;2023-10-31T05:44:32;0.35;;;0.20;;
72559;SDS011;62987;52.382;9.752;2023-10-31T05:47:00;2.25;;;0.30;;
72559;SDS011;62987;52.382;9.752;2023-10-31T05:49:29;0.90;;;0.20;;
72559;SDS011;62987;52.382;9.752;2023-10-31T05:51:58;0.93;;;0.30;;
72559;SDS011;62987;52.382;9.752;2023-10-31T05:54:26;1.92;;;0.30;;
72559;SDS011;62987;52.382;9.752;2023-10-31T05:56:55;1.13;;;0.22;;
72559;SDS011;62987;52.382;9.752;2023-10-31T05:59:23;1.30;;;0.28;;
72559;SDS011;62987;52.382;9.752;2023-10-31T06:01:52;0.68;;;0.30;;
72559;SDS011;62987;52.382;9.752;2023-10-31T06:04:20;0.60;;;0.40;;
72559;SDS011;62987;52.382;9.752;2023-10-31T06:06:49;1.75;;;1.27;;
72559;SDS011;62987;52.382;9.752;2023-10-31T06:09:18;0.80;;;0.38;;
72559;SDS011;62987;52.382;9.752;2023-10-31T06:11:47;1.80;;;0.30;;
72559;SDS011;62987;52.382;9.752;2023-10-31T06:14:15;1.13;;;0.50;;
72559;SDS011;62987;52.382;9.752;2023-10-31T06:16:43;0.77;;;0.30;;
72559;SDS011;62987;52.382;9.752;2023-10-31T06:19:12;1.25;;;0.50;;
72559;SDS011;62987;52.382;9.752;2023-10-31T06:21:40;1.05;;;0.50;;
72559;SDS011;62987;52.382;9.752;2023-10-31T06:24:09;2.58;;;0.80;;
72559;SDS011;62987;52.382;9.752;2023-10-31T06:26:39;1.52;;;0.68;;
72559;SDS011;62987;52.382;9.752;2023-10-31T06:29:07;1.38;;;0.70;;
72559;SDS011;62987;52.382;9.752;2023-10-31T06:31:43;2.67;;;0.50;;
72559;SDS011;62987;52.382;9.752;2023-10-31T06:34:11;3.05;;;0.70;;
72559;SDS011;62987;52.382;9.752;2023-10-31T06:36:39;1.67;;;0.68;;
72559;SDS011;62987;52.382;9.752;2023-10-31T06:39:08;1.38;;;0.70;;
72559;SDS011;62987;52.382;9.752;2023-10-31T06:41:36;2.65;;;0.95;;
72559;SDS011;62987;52.382;9.752;2023-10-31T06:44:06;1.20;;;0.60;;
72559;SDS011;62987;52.382;9.752;2023-10-31T06:46:34;5.00;;;1.05;;
72559;SDS011;62987;52.382;9.752;2023-10-31T06:49:03;2.40;;;0.90;;
72559;SDS011;62987;52.382;9.752;2023-10-31T06:51:31;1.65;;;0.90;;
72559;SDS011;62987;52.382;9.752;2023-10-31T06:54:00;1.75;;;0.80;;
72559;SDS011;62987;52.382;9.752;2023-10-31T06:56:28;5.82;;;1.48;;
72559;SDS011;62987;52.382;9.752;2023-10-31T06:58:56;6.78;;;1.95;;
72559;SDS011;62987;52.382;9.752;2023-10-31T07:01:26;5.50;;;1.08;;
72559;SDS011;62987;52.382;9.752;2023-10-31T07:03:54;3.47;;;1.23;;
72559;SDS011;62987;52.382;9.752;2023-10-31T07:06:23;4.18;;;1.45;;
72559;SDS011;62987;52.382;9.752;2023-10-31T07:08:51;6.43;;;1.30;;
72559;SDS011;62987;52.382;9.752;2023-10-31T07:11:19;3.28;;;1.00;;
72559;SDS011;62987;52.382;9.752;2023-10-31T07:13:48;5.43;;;1.35;;
72559;SDS011;62987;52.382;9.752;2023-10-31T07:16:16;3.10;;;1.00;;
72559;SDS011;62987;52.382;9.752;2023-10-31T07:18:46;2.78;;;1.42;;
72559;SDS011;62987;52.382;9.752;2023-10-31T07:21:14;2.08;;;0.90;;
72559;SDS011;62987;52.382;9.752;2023-10-31T07:23:42;3.72;;;1.40;;
72559;SDS011;62987;52.382;9.752;2023-10-31T07:26:11;3.17;;;1.42;;
72559;SDS011;62987;52.382;9.752;2023-10-31T07:28:40;2.75;;;1.00;;
72559;SDS011;62987;52.382;9.752;2023-10-31T07:31:08;2.05;;;0.82;;
72559;SDS011;62987;52.382;9.752;2023-10-31T07:33:37;3.30;;;1.02;;
72559;SDS011;62987;52.382;9.752;2023-10-31T07:36:07;2.65;;;1.10;;
72559;SDS011;62987;52.382;9.752;2023-10-31T07:38:35;2.42;;;1.15;;
72559;SDS011;62987;52.382;9.752;2023-10-31T07:41:03;3.65;;;1.02;;
72559;SDS011;62987;52.382;9.752;2023-10-31T07:43:32;2.78;;;0.88;;
72559;SDS011;62987;52.382;9.752;2023-10-31T07:46:04;3.15;;;1.20;;
72559;SDS011;62987;52.382;9.752;2023-10-31T07:48:33;4.63;;;1.35;;
72559;SDS011;62987;52.382;9.752;2023-10-31T07:51:08;3.53;;;1.05;;
72559;SDS011;62987;52.382;9.752;2023-10-31T07:53:36;2.35;;;1.00;;
72559;SDS011;62987;52.382;9.752;2023-10-31T07:56:05;2.60;;;0.90;;
72559;SDS011;62987;52.382;9.752;2023-10-31T07:58:42;5.35;;;1.10;;
72559;SDS011;62987;52.382;9.752;2023-10-31T08:01:10;3.15;;;1.35;;
72559;SDS011;62987;52.382;9.752;2023-10-31T08:03:39;2.90;;;1.05;;
72559;SDS011;62987;52.382;9.752;2023-10-31T08:06:10;4.85;;;0.90;;
72559;SDS011;62987;52.382;9.752;2023-10-31T08:08:39;3.55;;;1.30;;
72559;SDS011;62987;52.382;9.752;2023-10-31T08:11:07;2.40;;;0.93;;
72559;SDS011;62987;52.382;9.752;2023-10-31T08:13:36;3.42;;;1.13;;
72559;SDS011;62987;52.382;9.752;2023-10-31T08:16:05;2.40;;;0.90;;
72559;SDS011;62987;52.382;9.752;2023-10-31T08:18:35;1.85;;;1.05;;
72559;SDS011;62987;52.382;9.752;2023-10-31T08:21:04;4.28;;;1.17;;
72559;SDS011;62987;52.382;9.752;2023-10-31T08:23:34;2.08;;;1.00;;
72559;SDS011;62987;52.382;9.752;2023-10-31T08:26:03;2.42;;;0.88;;
72559;SDS011;62987;52.382;9.752;2023-10-31T08:28:31;1.63;;;0.70;;
72559;SDS011;62987;52.382;9.752;2023-10-31T08:31:00;4.25;;;0.80;;
72559;SDS011;62987;52.382;9.752;2023-10-31T08:33:30;2.10;;;0.95;;
72559;SDS011;62987;52.382;9.752;2023-10-31T08:35:59;2.92;;;1.10;;
72559;SDS011;62987;52.382;9.752;2023-10-31T08:38:28;1.48;;;0.63;;
72559;SDS011;62987;52.382;9.752;2023-10-31T08:40:59;1.40;;;0.70;;
72559;SDS011;62987;52.382;9.752;2023-10-31T08:43:28;2.60;;;0.93;;
72559;SDS011;62987;52.382;9.752;2023-10-31T08:45:57;1.27;;;0.52;;
72559;SDS011;62987;52.382;9.752;2023-10-31T08:48:26;1.85;;;0.90;;
72559;SDS011;62987;52.382;9.752;2023-10-31T08:50:54;2.20;;;0.85;;
72559;SDS011;62987;52.382;9.752;2023-10-31T08:53:23;3.30;;;0.82;;
72559;SDS011;62987;52.382;9.752;2023-10-31T08:55:51;2.20;;;0.88;;
72559;SDS011;62987;52.382;9.752;2023-10-31T08:58:21;1.20;;;0.60;;
72559;SDS011;62987;52.382;9.752;2023-10-31T09:00:49;0.85;;;0.50;;
72559;SDS011;62987;52.382;9.752;2023-10-31T09:03:18;1.35;;;0.60;;
72559;SDS011;62987;52.382;9.752;2023-10-31T09:08:13;1.80;;;0.60;;
72559;SDS011;62987;52.382;9.752;2023-10-31T09:10:42;1.33;;;0.60;;
72559;SDS011;62987;52.382;9.752;2023-10-31T09:13:13;1.92;;;0.98;;
72559;SDS011;62987;52.382;9.752;2023-10-31T09:15:43;2.75;;;0.68;;
72559;SDS011;62987;52.382;9.752;2023-10-31T09:18:12;1.40;;;0.52;;
72559;SDS011;62987;52.382;9.752;2023-10-31T09:20:41;2.65;;;0.80;;
72559;SDS011;62987;52.382;9.752;2023-10-31T09:23:09;1.58;;;0.60;;
72559;SDS011;62987;52.382;9.752;2023-10-31T09:25:37;1.42;;;0.43;;
72559;SDS011;62987;52.382;9.752;2023-10-31T09:28:06;1.15;;;0.50;;
72559;SDS011;62987;52.382;9.752;2023-10-31T09:30:34;2.03;;;0.77;;
72559;SDS011;62987;52.382;9.752;2023-10-31T09:33:04;1.08;;;0.50;;
72559;SDS011;62987;52.382;9.752;2023-10-31T09:35:32;1.30;;;0.55;;
72559;SDS011;62987;52.382;9.752;2023-10-31T09:38:01;1.85;;;0.63;;
72559;SDS011;62987;52.382;9.752;2023-10-31T09:40:29;1.55;;;0.63;;
72559;SDS011;62987;52.382;9.752;2023-10-31T09:42:58;0.93;;;0.40;;
72559;SDS011;62987;52.382;9.752;2023-10-31T09:45:26;1.05;;;0.50;;
72559;SDS011;62987;52.382;9.752;2023-10-31T09:47:54;0.70;;;0.50;;
72559;SDS011;62987;52.382;9.752;2023-10-31T09:50:25;0.93;;;0.35;;
72559;SDS011;62987;52.382;9.752;2023-10-31T09:52:54;3.65;;;0.65;;
72559;SDS011;62987;52.382;9.752;2023-10-31T09:55:24;0.85;;;0.43;;
72559;SDS011;62987;52.382;9.752;2023-10-31T09:57:53;0.38;;;0.30;;
72559;SDS011;62987;52.382;9.752;2023-10-31T10:00:22;3.13;;;0.47;;
72559;SDS011;62987;52.382;9.752;2023-10-31T10:02:50;1.60;;;0.60;;
72559;SDS011;62987;52.382;9.752;2023-10-31T10:05:19;1.50;;;0.43;;
72559;SDS011;62987;52.382;9.752;2023-10-31T10:07:50;2.45;;;0.57;;
72559;SDS011;62987;52.382;9.752;2023-10-31T10:10:18;2.10;;;0.40;;
72559;SDS011;62987;52.382;9.752;2023-10-31T10:12:46;2.92;;;0.50;;
72559;SDS011;62987;52.382;9.752;2023-10-31T10:15:15;1.63;;;0.60;;
72559;SDS011;62987;52.382;9.752;2023-10-31T10:17:48;0.43;;;0.20;;
72559;SDS011;62987;52.382;9.752;2023-10-31T10:20:18;0.45;;;0.32;;
72559;SDS011;62987;52.382;9.752;2023-10-31T10:22:47;0.55;;;0.28;;
72559;SDS011;62987;52.382;9.752;2023-10-31T10:25:17;0.73;;;0.38;;
72559;SDS011;62987;52.382;9.752;2023-10-31T10:27:46;0.55;;;0.25;;
72559;SDS011;62987;52.382;9.752;2023-10-31T10:30:15;0.93;;;0.45;;
72559;SDS011;62987;52.382;9.752;2023-10-31T10:32:43;0.63;;;0.35;;
72559;SDS011;62987;52.382;9.752;2023-10-31T10:35:12;0.57;;;0.40;;
72559;SDS011;62987;52.382;9.752;2023-10-31T10:37:42;0.57;;;0.22;;
72559;SDS011;62987;52.382;9.752;2023-10-31T10:40:12;1.25;;;0.50;;
72559;SDS011;62987;52.382;9.752;2023-10-31T10:42:46;1.02;;;0.30;;
72559;SDS011;62987;52.382;9.752;2023-10-31T10:45:15;0.50;;;0.30;;
72559;SDS011;62987;52.382;9.752;2023-10-31T10:47:46;0.75;;;0.30;;
72559;SDS011;62987;52.382;9.752;2023-10-31T10:50:16;3.00;;;0.60;;
72559;SDS011;62987;52.382;9.752;2023-10-31T10:52:48;1.20;;;0.38;;
72559;SDS011;62987;52.382;9.752;2023-10-31T10:55:24;1.25;;;0.50;;
72559;SDS011;62987;52.382;9.752;2023-10-31T10:57:59;1.85;;;0.88;;
72559;SDS011;62987;52.382;9.752;2023-10-31T11:00:30;0.57;;;0.35;;
72559;SDS011;62987;52.382;9.752;2023-10-31T11:02:59;1.40;;;0.50;;
72559;SDS011;62987;52.382;9.752;2023-10-31T11:05:28;1.38;;;0.63;;
72559;SDS011;62987;52.382;9.752;2023-10-31T11:07:58;1.77;;;0.68;;
72559;SDS011;62987;52.382;9.752;2023-10-31T11:10:28;0.82;;;0.40;;
72559;SDS011;62987;52.382;9.752;2023-10-31T11:13:01;2.10;;;0.52;;
72559;SDS011;62987;52.382;9.752;2023-10-31T11:15:29;1.42;;;0.77;;
72559;SDS011;62987;52.382;9.752;2023-10-31T11:17:58;1.10;;;0.52;;
72559;SDS011;62987;52.382;9.752;2023-10-31T11:20:29;1.27;;;0.60;;
72559;SDS011;62987;52.382;9.752;2023-10-31T11:22:59;2.42;;;0.70;;
72559;SDS011;62987;52.382;9.752;2023-10-31T11:25:31;1.55;;;0.65;;
72559;SDS011;62987;52.382;9.752;2023-10-31T11:28:14;1.40;;;0.57;;
72559;SDS011;62987;52.382;9.752;2023-10-31T11:30:45;1.50;;;0.75;;
72559;SDS011;62987;52.382;9.752;2023-10-31T11:33:19;2.15;;;0.80;;
72559;SDS011;62987;52.382;9.752;2023-10-31T11:35:51;2.30;;;0.70;;
72559;SDS011;62987;52.382;9.752;2023-10-31T11:38:30;0.60;;;0.50;;
72559;SDS011;62987;52.382;9.752;2023-10-31T11:41:01;3.28;;;1.02;;
72559;SDS011;62987;52.382;9.752;2023-10-31T11:46:20;0.90;;;0.50;;
72559;SDS011;62987;52.382;9.752;2023-10-31T11:48:52;3.35;;;0.70;;
72559;SDS011;62987;52.382;9.752;2023-10-31T11:51:23;3.13;;;0.60;;
72559;SDS011;62987;52.382;9.752;2023-10-31T11:53:51;0.43;;;0.40;;
72559;SDS011;62987;52.382;9.752;2023-10-31T11:56:20;1.85;;;0.70;;
72559;SDS011;62987;52.382;9.752;2023-10-31T11:58:58;0.88;;;0.50;;
72559;SDS011;62987;52.382;9.752;2023-10-31T12:01:27;1.67;;;0.45;;
72559;SDS011;62987;52.382;9.752;2023-10-31T12:03:55;2.35;;;0.93;;
72559;SDS011;62987;52.382;9.752;2023-10-31T12:06:24;1.98;;;0.73;;
72559;SDS011;62987;52.382;9.752;2023-10-31T12:08:52;3.10;;;0.60;;
72559;SDS011;62987;52.382;9.752;2023-10-31T12:11:22;1.08;;;0.52;;
72559;SDS011;62987;52.382;9.752;2023-10-31T12:13:52;1.27;;;0.43;;
72559;SDS011;62987;52.382;9.752;2023-10-31T12:16:24;1.40;;;0.50;;
72559;SDS011;62987;52.382;9.752;2023-10-31T12:18:54;3.03;;;0.80;;
72559;SDS011;62987;52.382;9.752;2023-10-31T12:21:34;2.25;;;0.82;;
72559;SDS011;62987;52.382;9.752;2023-10-31T12:24:05;2.28;;;1.05;;
72559;SDS011;62987;52.382;9.752;2023-10-31T12:26:35;1.98;;;0.88;;
72559;SDS011;62987;52.382;9.752;2023-10-31T12:29:07;2.45;;;1.13;;
72559;SDS011;62987;52.382;9.752;2023-10-31T12:31:41;2.30;;;0.80;;
72559;SDS011;62987;52.382;9.752;2023-10-31T12:34:11;1.80;;;1.02;;
72559;SDS011;62987;52.382;9.752;2023-10-31T12:36:39;2.28;;;1.23;;
72559;SDS011;62987;52.382;9.752;2023-10-31T12:39:10;2.60;;;1.00;;
72559;SDS011;62987;52.382;9.752;2023-10-31T12:41:40;0.75;;;0.32;;
72559;SDS011;62987;52.382;9.752;2023-10-31T12:44:09;2.88;;;0.75;;
72559;SDS011;62987;52.382;9.752;2023-10-31T12:46:38;1.88;;;1.00;;
72559;SDS011;62987;52.382;9.752;2023-10-31T12:49:12;2.75;;;1.02;;
72559;SDS011;62987;52.382;9.752;2023-10-31T12:51:57;3.45;;;1.17;;
72559;SDS011;62987;52.382;9.752;2023-10-31T12:54:27;3.05;;;1.17;;
72559;SDS011;62987;52.382;9.752;2023-10-31T12:56:58;3.85;;;1.42;;
72559;SDS011;62987;52.382;9.752;2023-10-31T12:59:28;2.55;;;1.10;;
72559;SDS011;62987;52.382;9.752;2023-10-31T13:01:56;6.40;;;1.90;;
72559;SDS011;62987;52.382;9.752;2023-10-31T13:04:26;3.20;;;1.23;;
72559;SDS011;62987;52.382;9.752;2023-10-31T13:06:56;6.07;;;1.00;;
72559;SDS011;62987;52.382;9.752;2023-10-31T13:09:29;4.50;;;1.30;;
72559;SDS011;62987;52.382;9.752;2023-10-31T13:11:58;3.22;;;1.52;;
72559;SDS011;62987;52.382;9.752;2023-10-31T13:14:28;4.30;;;1.45;;
72559;SDS011;62987;52.382;9.752;2023-10-31T13:16:57;2.75;;;1.10;;
72559;SDS011;62987;52.382;9.752;2023-10-31T13:19:27;2.92;;;1.17;;
72559;SDS011;62987;52.382;9.752;2023-10-31T13:21:55;4.10;;;1.45;;
72559;SDS011;62987;52.382;9.752;2023-10-31T13:24:23;4.97;;;1.33;;
72559;SDS011;62987;52.382;9.752;2023-10-31T13:26:52;2.63;;;1.20;;
72559;SDS011;62987;52.382;9.752;2023-10-31T13:29:20;3.20;;;1.45;;
72559;SDS011;62987;52.382;9.752;2023-10-31T13:31:52;3.17;;;1.08;;
72559;SDS011;62987;52.382;9.752;2023-10-31T13:34:20;2.78;;;1.35;;
72559;SDS011;62987;52.382;9.752;2023-10-31T13:36:51;3.00;;;1.55;;
72559;SDS011;62987;52.382;9.752;2023-10-31T13:39:21;2.50;;;1.23;;
72559;SDS011;62987;52.382;9.752;2023-10-31T13:41:50;6.05;;;1.70;;
72559;SDS011;62987;52.382;9.752;2023-10-31T13:44:19;3.55;;;1.77;;
72559;SDS011;62987;52.382;9.752;2023-10-31T13:46:48;3.47;;;1.40;;
72559;SDS011;62987;52.382;9.752;2023-10-31T13:49:16;3.08;;;1.33;;
72559;SDS011;62987;52.382;9.752;2023-10-31T13:51:46;2.85;;;1.23;;
72559;SDS011;62987;52.382;9.752;2023-10-31T13:54:16;1.98;;;0.90;;
72559;SDS011;62987;52.382;9.752;2023-10-31T13:56:45;3.38;;;1.05;;
72559;SDS011;62987;52.382;9.752;2023-10-31T13:59:14;3.10;;;1.00;;
72559;SDS011;62987;52.382;9.752;2023-10-31T14:01:43;6.28;;;1.30;;
72559;SDS011;62987;52.382;9.752;2023-10-31T14:04:12;4.10;;;1.27;;
72559;SDS011;62987;52.382;9.752;2023-10-31T14:06:42;4.65;;;1.67;;
72559;SDS011;62987;52.382;9.752;2023-10-31T14:09:10;5.25;;;2.00;;
72559;SDS011;62987;52.382;9.752;2023-10-31T14:11:40;3.47;;;1.58;;
72559;SDS011;62987;52.382;9.752;2023-10-31T14:14:10;3.05;;;1.40;;
72559;SDS011;62987;52.382;9.752;2023-10-31T14:16:40;4.43;;;1.67;;
72559;SDS011;62987;52.382;9.752;2023-10-31T14:19:11;4.40;;;1.73;;
72559;SDS011;62987;52.382;9.752;2023-10-31T14:21:40;5.00;;;1.75;;
72559;SDS011;62987;52.382;9.752;2023-10-31T14:24:09;5.18;;;2.08;;
72559;SDS011;62987;52.382;9.752;2023-10-31T14:26:40;5.00;;;2.30;;
72559;SDS011;62987;52.382;9.752;2023-10-31T14:29:10;4.57;;;2.58;;
72559;SDS011;62987;52.382;9.752;2023-10-31T14:31:39;5.97;;;2.22;;
72559;SDS011;62987;52.382;9.752;2023-10-31T14:34:09;6.65;;;2.05;;
72559;SDS011;62987;52.382;9.752;2023-10-31T14:36:38;5.40;;;2.42;;
72559;SDS011;62987;52.382;9.752;2023-10-31T14:39:07;6.55;;;2.90;;
72559;SDS011;62987;52.382;9.752;2023-10-31T14:41:36;7.03;;;2.92;;
72559;SDS011;62987;52.382;9.752;2023-10-31T14:44:06;8.95;;;3.25;;
72559;SDS011;62987;52.382;9.752;2023-10-31T14:46:35;6.13;;;2.85;;
72559;SDS011;62987;52.382;9.752;2023-10-31T14:49:04;5.32;;;3.00;;
72559;SDS011;62987;52.382;9.752;2023-10-31T14:51:32;8.95;;;3.42;;
72559;SDS011;62987;52.382;9.752;2023-10-31T14:54:01;6.00;;;2.78;;
72559;SDS011;62987;52.382;9.752;2023-10-31T14:56:29;8.20;;;3.20;;
72559;SDS011;62987;52.382;9.752;2023-10-31T14:58:58;7.70;;;3.05;;
72559;SDS011;62987;52.382;9.752;2023-10-31T15:01:30;6.63;;;2.70;;
72559;SDS011;62987;52.382;9.752;2023-10-31T15:03:59;7.07;;;2.75;;
72559;SDS011;62987;52.382;9.752;2023-10-31T15:06:27;6.70;;;3.35;;